Grete Maersk — OYCY2 — position and weather

sailwx.info

Track history (hours):
 
Tides and Currents Weather Stations Pressure Air Temp Water Temp Dewpoint Dewpoint Depression Visibility Wind Speed Wind Dir Waves Ship Positions

Grete Maersk

Last reported at 2015-Feb-15 11:14 UTC. Time now 2015-Mar-01 20:53 UTC.
Position N 01°09' E 103°44'.
Warning: this ship's position is 14 days out of date.

MMSI: 218824136.

Date/timePositionNaut miles runAvg speedWind from/ knotsBaromVisibWave heightAir tempDewpointWater temp
2015-Feb-15 11:14N 01°09' E 103°44'1623.1
2015-Feb-15 10:33N 01°15' E 103°59'  
2015-Feb-12 12:22N 22°17' E 114°06'12 9.5
2015-Feb-12 11:09N 22°22' E 113°55'5 9.2
2015-Feb-12 10:33N 22°27' E 113°53'0 0.4
2015-Feb-12 09:29N 22°27' E 113°53'0 0.0
2015-Feb-12 08:29N 22°27' E 113°53'0 0.0
2015-Feb-12 07:29N 22°28' E 113°53'0 0.0
2015-Feb-12 06:32N 22°27' E 113°53'0 0.0
2015-Feb-12 05:29N 22°27' E 113°53'0 0.0
2015-Feb-12 04:32N 22°27' E 113°53'0 0.0
2015-Feb-12 03:32N 22°28' E 113°53'0 0.0
2015-Feb-12 02:32N 22°27' E 113°53'0 0.0
2015-Feb-12 01:29N 22°27' E 113°53'0 0.0
2015-Feb-12 00:29N 22°27' E 113°53'0 0.1
2015-Feb-11 23:33N 22°27' E 113°53'4 4.1
2015-Feb-11 22:33N 22°24' E 113°54'11 9.5
2015-Feb-11 21:24N 22°20' E 114°05'12 9.6
2015-Feb-11 20:10N 22°10' E 114°12'5 7.1
2015-Feb-11 19:25N 22°08' E 114°18'910.4
2015-Feb-11 18:33N 22°13' E 114°26'10 9.9
2015-Feb-11 17:32N 22°22' E 114°29'131 5.0
2015-Feb-10 15:29N 22°48' E 116°48'1212.4
2015-Feb-10 14:33N 22°54' E 116°59'5513.1
2015-Feb-10 10:20N 23°31' E 117°43'1519.2
2015-Feb-10 09:33N 23°40' E 117°57'2120.7
2015-Feb-10 08:33N 23°52' E 118°15'2020.2
2015-Feb-10 07:33N 24°05' E 118°32'2019.8
2015-Feb-10 06:32N 24°18' E 118°49'2620.2
2015-Feb-10 05:16N 24°34' E 119°11'37719.0
2015-Feb-09 09:27N 29°51' E 122°59'3817.6
2015-Feb-09 07:17N 30°28' E 122°46'1618.9
2015-Feb-09 06:28N 30°31' E 122°28'1415.0
2015-Feb-09 05:33N 30°33' E 122°13'9 9.5
2015-Feb-09 04:34N 30°38' E 122°03'0 0.0
2015-Feb-09 03:23N 30°38' E 122°03'0 0.0
2015-Feb-09 02:32N 30°38' E 122°03'0 0.0
2015-Feb-09 01:32N 30°38' E 122°03'0 0.0
2015-Feb-09 00:32N 30°38' E 122°03'0 0.0
2015-Feb-08 23:32N 30°38' E 122°03'0 0.0
2015-Feb-08 22:32N 30°38' E 122°03'0 0.0
2015-Feb-08 21:32N 30°38' E 122°03'0 0.0
2015-Feb-08 20:29N 30°38' E 122°03'0 0.0
2015-Feb-08 19:32N 30°38' E 122°03'0 0.0
2015-Feb-08 18:32N 30°38' E 122°03'0 0.0
2015-Feb-08 17:32N 30°38' E 122°03'0 0.0
2015-Feb-08 16:32N 30°38' E 122°03'0 0.0
2015-Feb-08 15:32N 30°38' E 122°03'0 0.0
2015-Feb-08 14:32N 30°38' E 122°03'0 0.0
2015-Feb-08 13:29N 30°38' E 122°03'0 0.0
2015-Feb-08 12:29N 30°38' E 122°03'0 0.0
2015-Feb-08 11:32N 30°38' E 122°03'0 0.0
2015-Feb-08 10:32N 30°38' E 122°03'0 0.0
2015-Feb-08 09:32N 30°38' E 122°03'0 0.0
2015-Feb-08 08:32N 30°38' E 122°03'0 0.0
2015-Feb-08 07:32N 30°38' E 122°03'0 0.0
2015-Feb-08 06:32N 30°38' E 122°03'0 0.0
2015-Feb-08 05:29N 30°38' E 122°03'0 0.0
2015-Feb-08 04:32N 30°38' E 122°03'0 0.0
2015-Feb-08 03:32N 30°38' E 122°03'0 0.0
2015-Feb-08 02:32N 30°38' E 122°03'1 1.1
2015-Feb-08 01:33N 30°37' E 122°04'8 8.1
2015-Feb-08 00:34N 30°33' E 122°12'8 8.5
2015-Feb-07 23:34N 30°33' E 122°22'3 3.5
2015-Feb-07 22:33N 30°32' E 122°26'5 4.4
2015-Feb-07 21:32N 30°31' E 122°31'10 9.8
2015-Feb-07 20:30N 30°28' E 122°42'9 9.3
2015-Feb-07 19:33N 30°24' E 122°51'35 8.0
2015-Feb-07 15:09N 29°50' E 122°43'810.7
2015-Feb-07 14:23N 29°47' E 122°34'910.2
2015-Feb-07 13:32N 29°44' E 122°24'9 9.5
2015-Feb-07 12:33N 29°48' E 122°15'1211.7
2015-Feb-07 11:33N 29°54' E 122°03'1 1.1
2015-Feb-07 10:32N 29°54' E 122°02'0 0.0
2015-Feb-07 09:20N 29°54' E 122°02'0 0.0
2015-Feb-07 08:20N 29°54' E 122°02'0 0.0
2015-Feb-07 07:26N 29°54' E 122°02'0 0.0
2015-Feb-07 06:20N 29°54' E 122°02'0 0.0
2015-Feb-07 05:26N 29°54' E 122°02'0 0.1
2015-Feb-07 04:29N 29°54' E 122°02'0 0.1
2015-Feb-07 03:29N 29°54' E 122°02'0 0.0
2015-Feb-07 02:29N 29°54' E 122°02'0 0.0
2015-Feb-07 01:32N 29°54' E 122°02'0 0.0
2015-Feb-06 23:26N 29°54' E 122°02'0 0.0
2015-Feb-06 22:17N 29°54' E 122°02'0 0.0
2015-Feb-06 21:23N 29°54' E 122°02'0 0.0
2015-Feb-06 20:32N 29°54' E 122°02'0 0.0
2015-Feb-06 19:26N 29°54' E 122°02'0 0.0
2015-Feb-06 18:32N 29°54' E 122°02'0 0.0
2015-Feb-06 16:11N 29°54' E 122°02'0 0.0
2015-Feb-06 15:32N 29°54' E 122°02'0 0.0
2015-Feb-06 14:32N 29°54' E 122°02'0 0.0
2015-Feb-06 13:32N 29°54' E 122°02'0 0.0
2015-Feb-06 12:29N 29°54' E 122°02'0 0.0
2015-Feb-06 11:32N 29°54' E 122°02'0 0.0
2015-Feb-06 10:32N 29°54' E 122°02'0 0.0
2015-Feb-06 09:26N 29°54' E 122°02'0 0.0
2015-Feb-06 08:29N 29°54' E 122°02'0 0.0
2015-Feb-06 07:14N 29°54' E 122°02'0 0.0
2015-Feb-06 06:32N 29°54' E 122°02'0 0.0
2015-Feb-06 05:08N 29°54' E 122°02'0 0.0
2015-Feb-06 04:20N 29°54' E 122°02'0 0.0
2015-Feb-06 03:26N 29°54' E 122°02'0 0.0
2015-Feb-06 02:32N 29°54' E 122°02'0 0.0
2015-Feb-06 01:26N 29°54' E 122°02'0 0.0
2015-Feb-06 00:33N 29°54' E 122°02'5 4.5
2015-Feb-05 23:33N 29°56' E 122°07'1212.1
2015-Feb-05 22:33N 29°47' E 122°16'9 9.2
2015-Feb-05 21:33N 29°45' E 122°27'1918.8
2015-Feb-05 20:32N 29°52' E 122°47'  
Track history (hours):
 
Tides and Currents Weather Stations Pressure Air Temp Water Temp Dewpoint Dewpoint Depression Visibility Wind Speed Wind Dir Waves Ship Positions

Grete Maersk

Last reported at 2015-Feb-15 11:14 UTC. Time now 2015-Mar-01 20:53 UTC.
Position N 01°09' E 103°44'.
Warning: this ship's position is 14 days out of date.

MMSI: 218824136.

Date/timePositionNaut miles runAvg speedWind from/ knotsBaromVisibWave heightAir tempDewpointWater temp
2015-Feb-15 11:14N 01°09' E 103°44'1623.1
2015-Feb-15 10:33N 01°15' E 103°59'  
2015-Feb-12 12:22N 22°17' E 114°06'12 9.5
2015-Feb-12 11:09N 22°22' E 113°55'5 9.2
2015-Feb-12 10:33N 22°27' E 113°53'0 0.4
2015-Feb-12 09:29N 22°27' E 113°53'0 0.0
2015-Feb-12 08:29N 22°27' E 113°53'0 0.0
2015-Feb-12 07:29N 22°28' E 113°53'0 0.0
2015-Feb-12 06:32N 22°27' E 113°53'0 0.0
2015-Feb-12 05:29N 22°27' E 113°53'0 0.0
2015-Feb-12 04:32N 22°27' E 113°53'0 0.0
2015-Feb-12 03:32N 22°28' E 113°53'0 0.0
2015-Feb-12 02:32N 22°27' E 113°53'0 0.0
2015-Feb-12 01:29N 22°27' E 113°53'0 0.0
2015-Feb-12 00:29N 22°27' E 113°53'0 0.1
2015-Feb-11 23:33N 22°27' E 113°53'4 4.1
2015-Feb-11 22:33N 22°24' E 113°54'11 9.5
2015-Feb-11 21:24N 22°20' E 114°05'12 9.6
2015-Feb-11 20:10N 22°10' E 114°12'5 7.1
2015-Feb-11 19:25N 22°08' E 114°18'910.4
2015-Feb-11 18:33N 22°13' E 114°26'10 9.9
2015-Feb-11 17:32N 22°22' E 114°29'131 5.0
2015-Feb-10 15:29N 22°48' E 116°48'1212.4
2015-Feb-10 14:33N 22°54' E 116°59'5513.1
2015-Feb-10 10:20N 23°31' E 117°43'1519.2
2015-Feb-10 09:33N 23°40' E 117°57'2120.7
2015-Feb-10 08:33N 23°52' E 118°15'2020.2
2015-Feb-10 07:33N 24°05' E 118°32'2019.8
2015-Feb-10 06:32N 24°18' E 118°49'2620.2
2015-Feb-10 05:16N 24°34' E 119°11'37719.0
2015-Feb-09 09:27N 29°51' E 122°59'3817.6
2015-Feb-09 07:17N 30°28' E 122°46'1618.9
2015-Feb-09 06:28N 30°31' E 122°28'1415.0
2015-Feb-09 05:33N 30°33' E 122°13'9 9.5
2015-Feb-09 04:34N 30°38' E 122°03'0 0.0
2015-Feb-09 03:23N 30°38' E 122°03'0 0.0
2015-Feb-09 02:32N 30°38' E 122°03'0 0.0
2015-Feb-09 01:32N 30°38' E 122°03'0 0.0
2015-Feb-09 00:32N 30°38' E 122°03'0 0.0
2015-Feb-08 23:32N 30°38' E 122°03'0 0.0
2015-Feb-08 22:32N 30°38' E 122°03'0 0.0
2015-Feb-08 21:32N 30°38' E 122°03'0 0.0
2015-Feb-08 20:29N 30°38' E 122°03'0 0.0
2015-Feb-08 19:32N 30°38' E 122°03'0 0.0
2015-Feb-08 18:32N 30°38' E 122°03'0 0.0
2015-Feb-08 17:32N 30°38' E 122°03'0 0.0
2015-Feb-08 16:32N 30°38' E 122°03'0 0.0
2015-Feb-08 15:32N 30°38' E 122°03'0 0.0
2015-Feb-08 14:32N 30°38' E 122°03'0 0.0
2015-Feb-08 13:29N 30°38' E 122°03'0 0.0
2015-Feb-08 12:29N 30°38' E 122°03'0 0.0
2015-Feb-08 11:32N 30°38' E 122°03'0 0.0
2015-Feb-08 10:32N 30°38' E 122°03'0 0.0
2015-Feb-08 09:32N 30°38' E 122°03'0 0.0
2015-Feb-08 08:32N 30°38' E 122°03'0 0.0
2015-Feb-08 07:32N 30°38' E 122°03'0 0.0
2015-Feb-08 06:32N 30°38' E 122°03'0 0.0
2015-Feb-08 05:29N 30°38' E 122°03'0 0.0
2015-Feb-08 04:32N 30°38' E 122°03'0 0.0
2015-Feb-08 03:32N 30°38' E 122°03'0 0.0
2015-Feb-08 02:32N 30°38' E 122°03'1 1.1
2015-Feb-08 01:33N 30°37' E 122°04'8 8.1
2015-Feb-08 00:34N 30°33' E 122°12'8 8.5
2015-Feb-07 23:34N 30°33' E 122°22'3 3.5
2015-Feb-07 22:33N 30°32' E 122°26'5 4.4
2015-Feb-07 21:32N 30°31' E 122°31'10 9.8
2015-Feb-07 20:30N 30°28' E 122°42'9 9.3
2015-Feb-07 19:33N 30°24' E 122°51'35 8.0
2015-Feb-07 15:09N 29°50' E 122°43'810.7
2015-Feb-07 14:23N 29°47' E 122°34'910.2
2015-Feb-07 13:32N 29°44' E 122°24'9 9.5
2015-Feb-07 12:33N 29°48' E 122°15'1211.7
2015-Feb-07 11:33N 29°54' E 122°03'1 1.1
2015-Feb-07 10:32N 29°54' E 122°02'0 0.0
2015-Feb-07 09:20N 29°54' E 122°02'0 0.0
2015-Feb-07 08:20N 29°54' E 122°02'0 0.0
2015-Feb-07 07:26N 29°54' E 122°02'0 0.0
2015-Feb-07 06:20N 29°54' E 122°02'0 0.0
2015-Feb-07 05:26N 29°54' E 122°02'0 0.1
2015-Feb-07 04:29N 29°54' E 122°02'0 0.1
2015-Feb-07 03:29N 29°54' E 122°02'0 0.0
2015-Feb-07 02:29N 29°54' E 122°02'0 0.0
2015-Feb-07 01:32N 29°54' E 122°02'0 0.0
2015-Feb-06 23:26N 29°54' E 122°02'0 0.0
2015-Feb-06 22:17N 29°54' E 122°02'0 0.0
2015-Feb-06 21:23N 29°54' E 122°02'0 0.0
2015-Feb-06 20:32N 29°54' E 122°02'0 0.0
2015-Feb-06 19:26N 29°54' E 122°02'0 0.0
2015-Feb-06 18:32N 29°54' E 122°02'0 0.0
2015-Feb-06 16:11N 29°54' E 122°02'0 0.0
2015-Feb-06 15:32N 29°54' E 122°02'0 0.0
2015-Feb-06 14:32N 29°54' E 122°02'0 0.0
2015-Feb-06 13:32N 29°54' E 122°02'0 0.0
2015-Feb-06 12:29N 29°54' E 122°02'0 0.0
2015-Feb-06 11:32N 29°54' E 122°02'0 0.0
2015-Feb-06 10:32N 29°54' E 122°02'0 0.0
2015-Feb-06 09:26N 29°54' E 122°02'0 0.0
2015-Feb-06 08:29N 29°54' E 122°02'0 0.0
2015-Feb-06 07:14N 29°54' E 122°02'0 0.0
2015-Feb-06 06:32N 29°54' E 122°02'0 0.0
2015-Feb-06 05:08N 29°54' E 122°02'0 0.0
2015-Feb-06 04:20N 29°54' E 122°02'0 0.0
2015-Feb-06 03:26N 29°54' E 122°02'0 0.0
2015-Feb-06 02:32N 29°54' E 122°02'0 0.0
2015-Feb-06 01:26N 29°54' E 122°02'0 0.0
2015-Feb-06 00:33N 29°54' E 122°02'5 4.5
2015-Feb-05 23:33N 29°56' E 122°07'1212.1
2015-Feb-05 22:33N 29°47' E 122°16'9 9.2
2015-Feb-05 21:33N 29°45' E 122°27'1918.8
2015-Feb-05 20:32N 29°52' E 122°47'  

Dump ship's entire track history